Time;durP1;ratioP1;P1;durP2;ratioP2;P2;SDS_P1;SDS_P2;PMS_P1;PMS_P2;Temp;Humidity;BMP_temperature;BMP_pressure;BME280_temperature;BME280_humidity;BME280_pressure;Samples;Min_cycle;Max_cycle;Signal;HPM_P1;HPM_P2
2024/01/05 00:01:25;;;;;;;6.90;2.55;;;3.00;99.90;;;;;;5058080;28;20427;-75
2024/01/05 00:03:51;;;;;;;7.05;5.68;;;3.00;99.90;;;;;;5057584;28;20048;-75
2024/01/05 00:06:17;;;;;;;4.43;3.20;;;3.00;99.90;;;;;;5066639;28;20036;-72
2024/01/05 00:08:42;;;;;;;2.05;1.95;;;3.00;99.90;;;;;;5062197;28;20094;-74
2024/01/05 00:11:08;;;;;;;3.33;3.03;;;3.10;99.90;;;;;;5049448;28;20037;-74
2024/01/05 00:13:34;;;;;;;3.60;3.28;;;3.10;99.90;;;;;;5064010;28;20047;-75
2024/01/05 00:15:59;;;;;;;8.13;4.05;;;3.10;99.90;;;;;;5044804;28;20367;-75
2024/01/05 00:18:25;;;;;;;4.25;3.38;;;3.10;99.90;;;;;;5061338;28;20028;-75
2024/01/05 00:20:51;;;;;;;10.40;4.20;;;3.10;99.90;;;;;;5049330;28;20498;-74
2024/01/05 00:23:16;;;;;;;3.30;3.10;;;3.10;99.90;;;;;;5049779;28;20434;-75
2024/01/05 00:25:42;;;;;;;4.85;2.53;;;3.10;99.90;;;;;;5060369;28;20131;-75
2024/01/05 00:28:08;;;;;;;3.67;3.35;;;3.10;99.90;;;;;;5057225;28;20584;-75
2024/01/05 00:30:34;;;;;;;4.45;3.28;;;3.10;99.90;;;;;;5051277;28;20057;-75
2024/01/05 00:33:00;;;;;;;6.43;3.83;;;3.10;99.90;;;;;;5036353;28;20048;-74
2024/01/05 00:35:26;;;;;;;6.38;4.57;;;3.10;99.90;;;;;;5046036;28;20028;-74
2024/01/05 00:37:52;;;;;;;4.30;3.20;;;3.10;99.90;;;;;;5053952;28;20025;-74
2024/01/05 00:40:17;;;;;;;3.03;2.60;;;3.10;99.90;;;;;;5065767;28;20131;-74
2024/01/05 00:42:43;;;;;;;3.63;2.88;;;3.00;99.90;;;;;;5066121;28;20036;-74
2024/01/05 00:45:09;;;;;;;6.68;4.15;;;3.10;99.90;;;;;;5046400;28;20033;-74
2024/01/05 00:47:35;;;;;;;9.40;5.00;;;3.10;99.90;;;;;;5059426;28;20049;-74
2024/01/05 00:50:01;;;;;;;4.20;3.30;;;3.00;99.90;;;;;;5055881;28;20050;-74
2024/01/05 00:52:26;;;;;;;4.50;3.53;;;3.00;99.90;;;;;;5065213;28;20043;-73
2024/01/05 00:54:52;;;;;;;3.60;3.30;;;3.00;99.90;;;;;;5060473;28;20505;-74
2024/01/05 00:57:18;;;;;;;7.78;3.55;;;3.10;99.90;;;;;;5065913;28;20032;-74
2024/01/05 00:59:44;;;;;;;7.97;4.57;;;3.00;99.90;;;;;;5057427;28;20573;-74
2024/01/05 01:02:09;;;;;;;5.15;4.53;;;3.10;99.90;;;;;;5065881;28;20528;-74
2024/01/05 01:04:35;;;;;;;7.53;6.00;;;3.00;99.90;;;;;;5060039;28;20044;-74
2024/01/05 01:07:00;;;;;;;8.30;4.28;;;3.00;99.90;;;;;;5046483;28;20068;-74
2024/01/05 01:09:26;;;;;;;5.28;4.72;;;3.00;99.90;;;;;;5048152;28;20037;-75
2024/01/05 01:11:52;;;;;;;6.82;4.38;;;3.00;99.90;;;;;;5047687;28;20045;-75
2024/01/05 01:14:18;;;;;;;5.47;4.35;;;3.00;99.90;;;;;;5046776;28;20032;-75
2024/01/05 01:16:44;;;;;;;4.65;4.15;;;3.00;99.90;;;;;;5049075;28;20090;-75
2024/01/05 01:19:09;;;;;;;10.05;4.20;;;3.00;99.90;;;;;;5050170;28;20036;-75
2024/01/05 01:21:35;;;;;;;5.47;4.90;;;3.00;99.90;;;;;;5052454;28;20107;-75
2024/01/05 01:24:01;;;;;;;8.52;5.25;;;3.00;99.90;;;;;;5065906;28;20041;-75
2024/01/05 01:26:26;;;;;;;4.97;3.88;;;3.00;99.90;;;;;;5065732;28;20041;-75
2024/01/05 01:28:52;;;;;;;7.10;5.63;;;3.00;99.90;;;;;;5047168;28;20700;-75
2024/01/05 01:31:17;;;;;;;9.23;6.25;;;3.00;99.90;;;;;;5049230;28;20041;-75
2024/01/05 01:33:43;;;;;;;5.10;4.45;;;3.00;99.90;;;;;;5064300;28;20045;-75
2024/01/05 01:36:09;;;;;;;7.47;5.32;;;3.00;99.90;;;;;;5065313;28;20383;-74
2024/01/05 01:38:34;;;;;;;8.18;3.58;;;3.00;99.90;;;;;;5069448;28;20041;-74
2024/01/05 01:41:00;;;;;;;2.30;2.20;;;3.00;99.90;;;;;;5049620;28;20708;-74
2024/01/05 01:43:26;;;;;;;8.52;3.63;;;3.00;99.90;;;;;;5069217;28;20076;-74
2024/01/05 01:45:58;;;;;;;4.10;3.70;;;3.00;99.90;;;;;;5069278;28;20083;-74
2024/01/05 01:48:25;;;;;;;4.60;4.18;;;3.00;99.90;;;;;;5063850;28;20049;-74
2024/01/05 01:50:52;;;;;;;4.80;3.92;;;3.00;99.90;;;;;;5068817;28;20055;-74
2024/01/05 01:53:20;;;;;;;12.43;5.70;;;3.00;99.90;;;;;;5042523;28;20036;-74
2024/01/05 01:55:50;;;;;;;16.85;5.82;;;3.00;99.90;;;;;;5060609;28;20036;-74
2024/01/05 01:58:16;;;;;;;7.80;3.75;;;3.00;99.90;;;;;;5069508;28;20105;-75
2024/01/05 02:00:44;;;;;;;7.40;4.25;;;2.90;99.90;;;;;;5064633;28;20036;-75
2024/01/05 02:03:10;;;;;;;4.20;2.53;;;3.00;99.90;;;;;;5052334;28;20044;-75
2024/01/05 02:05:37;;;;;;;15.45;4.38;;;3.00;99.90;;;;;;5046959;28;20356;-75
2024/01/05 02:08:03;;;;;;;3.50;2.33;;;2.90;99.90;;;;;;5047772;28;20398;-75
2024/01/05 02:10:29;;;;;;;3.33;2.58;;;2.90;99.90;;;;;;5049297;28;20036;-76
2024/01/05 02:12:56;;;;;;;3.25;2.95;;;3.00;99.90;;;;;;5044308;28;20167;-75
2024/01/05 02:15:22;;;;;;;9.20;3.60;;;2.90;99.90;;;;;;5052191;28;20036;-76
2024/01/05 02:17:48;;;;;;;4.13;3.72;;;2.90;99.90;;;;;;5050621;28;20044;-76
2024/01/05 02:20:14;;;;;;;11.57;7.38;;;2.90;99.90;;;;;;5054410;28;20040;-76
2024/01/05 02:22:44;;;;;;;5.40;3.47;;;2.90;99.90;;;;;;5068577;28;20045;-75
2024/01/05 02:25:10;;;;;;;13.60;4.53;;;2.90;99.90;;;;;;5048791;28;20033;-76
2024/01/05 02:27:36;;;;;;;7.63;4.20;;;2.90;99.90;;;;;;5051764;28;20055;-76
2024/01/05 02:30:02;;;;;;;3.95;3.40;;;2.90;99.90;;;;;;5068339;28;20052;-76
2024/01/05 02:32:28;;;;;;;6.60;5.82;;;2.90;99.90;;;;;;5070924;28;20526;-75
2024/01/05 02:34:53;;;;;;;5.72;4.68;;;2.90;99.90;;;;;;5045335;28;20044;-75
2024/01/05 02:37:19;;;;;;;4.45;4.07;;;2.90;99.90;;;;;;5050850;28;20036;-75
2024/01/05 02:39:44;;;;;;;9.82;5.38;;;2.90;99.90;;;;;;5050222;28;20028;-75
2024/01/05 02:42:10;;;;;;;6.85;4.13;;;2.90;99.90;;;;;;5062825;28;20415;-75
2024/01/05 02:44:37;;;;;;;4.93;4.50;;;2.90;99.90;;;;;;5060659;28;20089;-75
2024/01/05 02:47:03;;;;;;;6.95;5.40;;;2.90;99.90;;;;;;5039383;28;20048;-74
2024/01/05 02:49:28;;;;;;;6.78;5.50;;;2.90;99.90;;;;;;5045884;28;20041;-74
2024/01/05 02:51:54;;;;;;;10.13;4.57;;;2.90;99.90;;;;;;5042738;28;20634;-74
2024/01/05 02:54:19;;;;;;;5.68;4.72;;;2.90;99.90;;;;;;5060222;28;20049;-74
2024/01/05 02:56:45;;;;;;;17.08;8.82;;;2.90;99.90;;;;;;5043640;28;20033;-74
2024/01/05 02:59:11;;;;;;;5.45;4.93;;;2.90;99.90;;;;;;5049653;28;20094;-75
2024/01/05 03:01:36;;;;;;;8.68;6.53;;;2.90;99.90;;;;;;5048688;28;20036;-74
2024/01/05 03:04:02;;;;;;;7.25;5.80;;;2.90;99.90;;;;;;5060564;28;20047;-74
2024/01/05 03:06:28;;;;;;;7.90;5.00;;;2.90;99.90;;;;;;5043985;28;20044;-74
2024/01/05 03:08:54;;;;;;;12.82;6.65;;;2.90;99.90;;;;;;5059226;28;20132;-74
2024/01/05 03:11:19;;;;;;;11.10;5.18;;;2.90;99.90;;;;;;5046558;28;20124;-74
2024/01/05 03:13:45;;;;;;;8.20;5.50;;;2.90;99.90;;;;;;5052666;28;20133;-74
2024/01/05 03:16:10;;;;;;;5.75;3.25;;;2.90;99.90;;;;;;5066361;28;20041;-74
2024/01/05 03:18:36;;;;;;;8.60;4.25;;;2.90;99.90;;;;;;5060065;28;20040;-74
2024/01/05 03:21:02;;;;;;;5.53;3.95;;;2.90;99.90;;;;;;5061977;28;20512;-75
2024/01/05 03:23:28;;;;;;;4.72;4.40;;;2.90;99.90;;;;;;5039773;28;20573;-76
2024/01/05 03:25:53;;;;;;;13.85;6.55;;;2.90;99.90;;;;;;5049511;28;20127;-76
2024/01/05 03:28:19;;;;;;;12.32;7.03;;;2.90;99.90;;;;;;5044277;28;20064;-76
2024/01/05 03:30:44;;;;;;;11.50;7.43;;;2.90;99.90;;;;;;5051441;28;20087;-76
2024/01/05 03:33:10;;;;;;;6.25;5.43;;;2.90;99.90;;;;;;5050462;28;20532;-76
2024/01/05 03:35:36;;;;;;;7.70;4.93;;;2.90;99.90;;;;;;5066967;28;20032;-76
2024/01/05 03:38:02;;;;;;;5.82;5.22;;;2.90;99.90;;;;;;5058303;28;20082;-76
2024/01/05 03:40:28;;;;;;;14.32;6.57;;;2.90;99.90;;;;;;5066106;28;20032;-76
2024/01/05 03:42:55;;;;;;;6.93;6.38;;;2.90;99.90;;;;;;5059537;28;20109;-76
2024/01/05 03:45:21;;;;;;;5.25;3.95;;;2.90;99.90;;;;;;5067159;28;20098;-76
2024/01/05 03:47:47;;;;;;;10.70;6.70;;;2.90;99.90;;;;;;5048597;28;20634;-75
2024/01/05 03:50:13;;;;;;;11.27;7.00;;;2.90;99.90;;;;;;5047770;28;20036;-76
2024/01/05 03:52:38;;;;;;;10.73;6.22;;;2.90;99.90;;;;;;5042922;28;20066;-76
2024/01/05 03:55:04;;;;;;;11.23;4.75;;;2.90;99.90;;;;;;5062885;28;20130;-76
2024/01/05 03:57:30;;;;;;;5.93;5.35;;;2.90;99.90;;;;;;5047199;28;20517;-76
2024/01/05 03:59:56;;;;;;;11.32;4.75;;;3.00;99.90;;;;;;5064698;28;20032;-76
2024/01/05 04:02:22;;;;;;;10.93;5.68;;;3.00;99.90;;;;;;5041179;28;20099;-75
2024/01/05 04:04:47;;;;;;;6.15;5.00;;;2.90;99.90;;;;;;5045875;28;20048;-76
2024/01/05 04:07:13;;;;;;;6.85;5.22;;;3.00;99.90;;;;;;5056020;28;20052;-75
2024/01/05 04:09:39;;;;;;;16.13;5.75;;;2.90;99.90;;;;;;5049519;28;20049;-76
2024/01/05 04:12:05;;;;;;;5.80;4.97;;;3.00;99.90;;;;;;5066322;28;20094;-74
2024/01/05 04:14:30;;;;;;;12.10;4.25;;;3.00;99.90;;;;;;5047409;28;20566;-74
2024/01/05 04:16:56;;;;;;;5.40;4.85;;;3.00;99.90;;;;;;5049198;28;20047;-74
2024/01/05 04:19:22;;;;;;;7.72;4.47;;;3.00;99.90;;;;;;5059905;28;20033;-74
2024/01/05 04:21:48;;;;;;;10.27;6.53;;;3.00;99.90;;;;;;5057632;28;20041;-74
2024/01/05 04:24:14;;;;;;;3.97;3.58;;;3.00;99.90;;;;;;5035161;28;20037;-74
2024/01/05 04:26:40;;;;;;;5.30;4.35;;;3.00;99.90;;;;;;5058316;28;20040;-74
2024/01/05 04:29:05;;;;;;;4.13;3.72;;;3.00;99.90;;;;;;5042493;28;20495;-74
2024/01/05 04:31:31;;;;;;;3.95;2.47;;;3.10;99.90;;;;;;5044122;28;20049;-74
2024/01/05 04:33:57;;;;;;;4.90;3.25;;;3.10;99.90;;;;;;5058107;28;20112;-74
2024/01/05 04:36:22;;;;;;;8.00;5.15;;;3.10;99.90;;;;;;5063369;28;20652;-74
2024/01/05 04:38:48;;;;;;;4.95;4.10;;;3.10;99.90;;;;;;5035579;28;20036;-74
2024/01/05 04:41:15;;;;;;;5.05;3.97;;;3.10;99.90;;;;;;5060143;28;20119;-74
2024/01/05 04:43:43;;;;;;;3.92;3.58;;;3.10;99.90;;;;;;5040344;28;20414;-74
2024/01/05 04:46:09;;;;;;;8.52;6.60;;;3.20;99.90;;;;;;5064074;28;20082;-74
2024/01/05 04:48:35;;;;;;;12.45;5.65;;;3.20;99.90;;;;;;5043920;28;20126;-74
2024/01/05 04:51:02;;;;;;;7.15;4.93;;;3.20;99.90;;;;;;5065711;28;20044;-74
2024/01/05 04:53:27;;;;;;;5.30;4.80;;;3.20;99.90;;;;;;5065070;28;20044;-74
2024/01/05 04:55:53;;;;;;;5.22;3.90;;;3.20;99.90;;;;;;5061903;28;20044;-74
2024/01/05 04:58:20;;;;;;;10.05;3.88;;;3.20;99.90;;;;;;5059114;28;20032;-74
2024/01/05 05:00:45;;;;;;;14.40;4.45;;;3.20;99.90;;;;;;5040503;28;20530;-74
2024/01/05 05:03:13;;;;;;;4.13;3.83;;;3.20;99.90;;;;;;5054395;28;20037;-74
2024/01/05 05:05:39;;;;;;;8.20;5.50;;;3.20;99.90;;;;;;5053101;28;20521;-74
2024/01/05 05:08:05;;;;;;;6.03;5.43;;;3.20;99.90;;;;;;5060702;28;20411;-74
2024/01/05 05:10:31;;;;;;;12.45;5.18;;;3.20;99.90;;;;;;5048384;28;20044;-74
2024/01/05 05:12:57;;;;;;;3.95;2.72;;;3.20;99.90;;;;;;5052065;28;20037;-74
2024/01/05 05:15:22;;;;;;;11.85;5.88;;;3.30;99.90;;;;;;5053296;28;20036;-74
2024/01/05 05:17:48;;;;;;;6.43;4.00;;;3.30;99.90;;;;;;5044516;28;20087;-74
2024/01/05 05:20:14;;;;;;;5.35;4.82;;;3.30;99.90;;;;;;5051230;28;20091;-74
2024/01/05 05:22:39;;;;;;;8.38;4.75;;;3.30;99.90;;;;;;5049936;28;20735;-74
2024/01/05 05:25:05;;;;;;;11.15;6.45;;;3.30;99.90;;;;;;5061530;28;20052;-74
2024/01/05 05:27:31;;;;;;;6.38;4.95;;;3.30;99.90;;;;;;5057559;28;20118;-74
2024/01/05 05:29:57;;;;;;;5.97;3.80;;;3.30;99.90;;;;;;5066065;28;20502;-74
2024/01/05 05:32:23;;;;;;;6.75;3.30;;;3.30;99.90;;;;;;5074268;28;20045;-74
2024/01/05 05:34:50;;;;;;;6.15;4.05;;;3.30;99.90;;;;;;5040787;28;20395;-74
2024/01/05 05:37:16;;;;;;;4.75;3.95;;;3.30;99.90;;;;;;5043133;28;20568;-74
2024/01/05 05:39:42;;;;;;;4.72;4.25;;;3.30;99.90;;;;;;5045531;28;20569;-74
2024/01/05 05:42:08;;;;;;;4.95;4.40;;;3.30;99.90;;;;;;5045062;28;20047;-74
2024/01/05 05:44:33;;;;;;;9.50;4.60;;;3.40;99.90;;;;;;5040626;28;20529;-74
2024/01/05 05:46:59;;;;;;;5.22;4.38;;;3.40;99.90;;;;;;5038371;28;20051;-74
2024/01/05 05:49:25;;;;;;;10.95;5.32;;;3.40;99.90;;;;;;5061974;28;20043;-74
2024/01/05 05:51:50;;;;;;;11.38;6.13;;;3.30;99.90;;;;;;5068681;28;20036;-74
2024/01/05 05:54:16;;;;;;;13.30;4.78;;;3.40;99.90;;;;;;5051945;28;20380;-74
2024/01/05 05:56:42;;;;;;;12.05;6.18;;;3.40;99.90;;;;;;5061654;28;20086;-74
2024/01/05 05:59:08;;;;;;;8.68;6.05;;;3.40;99.90;;;;;;5047823;28;20095;-74
2024/01/05 06:01:34;;;;;;;6.18;4.95;;;3.40;99.90;;;;;;5068975;28;20494;-74
2024/01/05 06:03:59;;;;;;;4.18;3.75;;;3.40;99.90;;;;;;5046134;28;20036;-74
2024/01/05 06:06:25;;;;;;;9.65;4.32;;;3.40;99.90;;;;;;5041344;28;20037;-74
2024/01/05 06:08:51;;;;;;;9.95;4.97;;;3.40;99.90;;;;;;5061975;28;20063;-74
2024/01/05 06:11:18;;;;;;;5.60;2.92;;;3.50;99.90;;;;;;5050814;28;20056;-74
2024/01/05 06:13:45;;;;;;;4.50;4.13;;;3.50;99.90;;;;;;5068338;28;20044;-74
2024/01/05 06:16:11;;;;;;;9.38;5.75;;;3.50;99.90;;;;;;5045397;28;20036;-74
2024/01/05 06:18:37;;;;;;;12.38;5.35;;;3.50;99.90;;;;;;5068150;28;20046;-74
2024/01/05 06:21:03;;;;;;;11.77;6.30;;;3.50;99.90;;;;;;5061140;28;20051;-74
2024/01/05 06:23:30;;;;;;;13.98;7.70;;;3.50;99.90;;;;;;5067487;28;20036;-74
2024/01/05 06:25:56;;;;;;;15.18;5.20;;;3.50;99.90;;;;;;5064415;28;20037;-74
2024/01/05 06:28:21;;;;;;;6.18;5.53;;;3.50;99.90;;;;;;5046618;28;20517;-74
2024/01/05 06:30:47;;;;;;;8.40;5.63;;;3.60;99.90;;;;;;5068447;28;20080;-74
2024/01/05 06:33:13;;;;;;;4.55;4.15;;;3.50;99.90;;;;;;5059735;28;20071;-74
2024/01/05 06:35:38;;;;;;;6.55;4.75;;;3.60;99.90;;;;;;5065229;28;20052;-74
2024/01/05 06:38:04;;;;;;;9.73;7.28;;;3.60;99.90;;;;;;5063177;28;20127;-74
2024/01/05 06:40:30;;;;;;;16.35;5.85;;;3.60;99.90;;;;;;5039345;28;20037;-74
2024/01/05 06:42:57;;;;;;;5.05;4.55;;;3.60;99.90;;;;;;5059601;28;20097;-74
2024/01/05 06:45:26;;;;;;;16.70;6.60;;;3.60;99.90;;;;;;5063532;28;20119;-74
2024/01/05 06:47:51;;;;;;;13.60;6.25;;;3.60;99.90;;;;;;5051269;28;20094;-74
2024/01/05 06:50:17;;;;;;;7.45;6.30;;;3.70;99.90;;;;;;5043828;28;20040;-74
2024/01/05 06:52:43;;;;;;;7.40;5.72;;;3.70;99.90;;;;;;5064250;28;20083;-74
2024/01/05 06:55:09;;;;;;;5.70;4.82;;;3.70;99.90;;;;;;5064919;28;20036;-74
2024/01/05 06:57:35;;;;;;;12.85;6.22;;;3.70;99.90;;;;;;5050151;28;20041;-75
2024/01/05 07:00:11;;;;;;;11.98;8.27;;;3.70;99.90;;;;;;5051667;28;20405;-74
2024/01/05 07:02:37;;;;;;;6.88;5.97;;;3.70;99.90;;;;;;5068538;28;20047;-74
2024/01/05 07:05:03;;;;;;;11.98;6.82;;;3.70;99.90;;;;;;5069139;28;20040;-76
2024/01/05 07:07:30;;;;;;;9.85;5.72;;;3.70;99.90;;;;;;5067947;28;20037;-75
2024/01/05 07:09:56;;;;;;;16.15;7.93;;;3.70;99.90;;;;;;5053014;28;20139;-74
2024/01/05 07:12:22;;;;;;;5.22;4.40;;;3.70;99.90;;;;;;5067884;28;20093;-76
2024/01/05 07:14:48;;;;;;;6.13;5.07;;;3.80;99.90;;;;;;5068315;28;20238;-76
2024/01/05 07:17:14;;;;;;;6.88;5.63;;;3.70;99.90;;;;;;5049492;28;20726;-76
2024/01/05 07:19:40;;;;;;;17.27;6.57;;;3.80;99.90;;;;;;5067605;28;20043;-76
2024/01/05 07:22:06;;;;;;;11.23;7.43;;;3.80;99.90;;;;;;5051070;28;20032;-75
2024/01/05 07:24:35;;;;;;;5.35;4.85;;;3.80;99.90;;;;;;5064524;28;20047;-75
2024/01/05 07:27:01;;;;;;;11.40;8.40;;;3.80;99.90;;;;;;5065368;28;20041;-75
2024/01/05 07:29:26;;;;;;;8.38;7.10;;;3.80;99.90;;;;;;5061871;28;20071;-74
2024/01/05 07:31:52;;;;;;;8.52;4.22;;;3.80;99.90;;;;;;5064588;28;20099;-75
2024/01/05 07:34:17;;;;;;;17.30;7.72;;;3.90;99.90;;;;;;5057766;28;20040;-74
2024/01/05 07:36:43;;;;;;;9.90;7.38;;;3.90;99.90;;;;;;5055695;28;20406;-74
2024/01/05 07:39:11;;;;;;;8.32;6.32;;;3.90;99.90;;;;;;5064958;28;20029;-74
2024/01/05 07:41:38;;;;;;;9.70;6.73;;;3.90;99.90;;;;;;5043515;28;20063;-74
2024/01/05 07:44:04;;;;;;;11.63;7.72;;;3.90;99.90;;;;;;5062958;28;20040;-74
2024/01/05 07:46:30;;;;;;;8.32;7.22;;;4.00;99.90;;;;;;5062190;28;20174;-75
2024/01/05 07:48:56;;;;;;;7.53;6.15;;;4.00;99.90;;;;;;5034150;28;20051;-75
2024/01/05 07:51:22;;;;;;;19.42;8.60;;;4.00;99.90;;;;;;5052671;28;20705;-74
2024/01/05 07:53:48;;;;;;;8.30;7.43;;;4.00;99.90;;;;;;5046471;28;20132;-75
2024/01/05 07:56:15;;;;;;;11.88;7.82;;;4.00;99.90;;;;;;5065171;28;20874;-75
2024/01/05 07:58:40;;;;;;;11.98;7.60;;;4.00;99.90;;;;;;5040938;28;20104;-75
2024/01/05 08:01:06;;;;;;;11.50;6.38;;;4.10;99.90;;;;;;5038028;28;20119;-75
2024/01/05 08:03:32;;;;;;;10.32;8.30;;;4.10;99.90;;;;;;5037290;28;20040;-75
2024/01/05 08:05:58;;;;;;;9.82;5.93;;;4.10;99.90;;;;;;5045666;28;20047;-74
2024/01/05 08:08:23;;;;;;;12.85;9.40;;;4.10;99.90;;;;;;5037441;28;20041;-75
2024/01/05 08:10:49;;;;;;;6.28;5.68;;;4.10;99.90;;;;;;5045878;28;20655;-75
2024/01/05 08:13:15;;;;;;;8.40;7.03;;;4.20;99.90;;;;;;5035369;28;20127;-73
2024/01/05 08:15:41;;;;;;;9.07;6.18;;;4.20;99.90;;;;;;5055735;28;20123;-74
2024/01/05 08:18:06;;;;;;;13.20;10.20;;;4.20;99.90;;;;;;5039656;28;20483;-74
2024/01/05 08:20:32;;;;;;;8.93;6.68;;;4.30;99.90;;;;;;5035458;28;20036;-74
2024/01/05 08:22:58;;;;;;;13.70;8.57;;;4.30;99.90;;;;;;5046430;28;20114;-75
2024/01/05 08:25:23;;;;;;;9.43;6.75;;;4.30;99.90;;;;;;5048857;28;20052;-74
2024/01/05 08:27:49;;;;;;;9.90;7.25;;;4.30;99.90;;;;;;5061869;28;20040;-75
2024/01/05 08:30:15;;;;;;;9.40;5.82;;;4.30;99.90;;;;;;5044384;28;20052;-74
2024/01/05 08:32:41;;;;;;;6.22;5.70;;;4.30;99.90;;;;;;5044659;28;20041;-74
2024/01/05 08:35:08;;;;;;;11.52;7.63;;;4.40;99.90;;;;;;5047055;28;20669;-75
2024/01/05 08:37:34;;;;;;;15.07;6.93;;;4.40;99.90;;;;;;5059064;28;20039;-75
2024/01/05 08:40:01;;;;;;;13.60;9.85;;;4.40;99.90;;;;;;5045933;28;20494;-74
2024/01/05 08:42:27;;;;;;;8.02;5.60;;;4.40;99.90;;;;;;5056613;28;20044;-75
2024/01/05 08:44:52;;;;;;;6.70;5.65;;;4.50;99.90;;;;;;5065734;28;20052;-75
2024/01/05 08:47:18;;;;;;;9.85;7.93;;;4.50;99.90;;;;;;5048289;28;20039;-75
2024/01/05 08:49:44;;;;;;;10.15;7.60;;;4.50;99.90;;;;;;5049287;28;20170;-74
2024/01/05 08:52:09;;;;;;;10.95;7.90;;;4.50;99.90;;;;;;5038067;28;20518;-75
2024/01/05 08:54:38;;;;;;;7.90;6.70;;;4.50;99.90;;;;;;5039425;28;20214;-75
2024/01/05 08:57:06;;;;;;;8.40;5.80;;;4.50;99.90;;;;;;5060146;28;20051;-75
2024/01/05 08:59:33;;;;;;;15.13;6.35;;;4.50;99.90;;;;;;5048352;28;20375;-74
2024/01/05 09:01:59;;;;;;;11.40;7.13;;;4.60;99.90;;;;;;5042028;28;20032;-74
2024/01/05 09:04:25;;;;;;;9.20;7.13;;;4.60;99.90;;;;;;5065796;28;20494;-75
2024/01/05 09:06:51;;;;;;;12.48;7.13;;;4.60;99.90;;;;;;5062969;28;20036;-74
2024/01/05 09:09:16;;;;;;;11.27;5.32;;;4.60;99.90;;;;;;5044579;28;20052;-74
2024/01/05 09:11:42;;;;;;;12.73;7.80;;;4.60;99.90;;;;;;5045038;28;20047;-73
2024/01/05 09:14:08;;;;;;;7.75;7.03;;;4.60;99.90;;;;;;5039457;28;20037;-74
2024/01/05 09:16:33;;;;;;;5.88;4.78;;;4.60;99.90;;;;;;5046456;28;20033;-74
2024/01/05 09:18:59;;;;;;;6.45;4.22;;;4.60;99.90;;;;;;5055797;28;20091;-74
2024/01/05 09:21:25;;;;;;;11.07;4.60;;;4.60;99.90;;;;;;5062513;28;20041;-74
2024/01/05 09:23:51;;;;;;;8.13;3.00;;;4.60;99.90;;;;;;5062245;28;20132;-74
2024/01/05 09:26:17;;;;;;;6.55;4.38;;;4.60;99.90;;;;;;5039449;28;20048;-75
2024/01/05 09:28:43;;;;;;;3.72;3.10;;;4.70;99.90;;;;;;5048208;28;20101;-76
2024/01/05 09:31:12;;;;;;;2.60;2.35;;;4.70;99.90;;;;;;5042337;28;20536;-75
2024/01/05 09:33:38;;;;;;;7.82;3.67;;;4.70;99.90;;;;;;5063483;28;20490;-75
2024/01/05 09:36:04;;;;;;;4.82;4.28;;;4.70;99.90;;;;;;5045088;28;20112;-75
2024/01/05 09:38:30;;;;;;;3.40;2.63;;;4.70;99.90;;;;;;5048933;28;20033;-75
2024/01/05 09:40:56;;;;;;;6.32;4.50;;;4.70;99.90;;;;;;5049123;28;20452;-75
2024/01/05 09:43:23;;;;;;;4.22;3.00;;;4.70;99.90;;;;;;5040673;28;20044;-76
2024/01/05 09:45:53;;;;;;;4.78;3.63;;;4.70;99.90;;;;;;5047329;28;20033;-75
2024/01/05 09:48:19;;;;;;;6.57;5.32;;;4.80;99.90;;;;;;5044221;28;20394;-76
2024/01/05 09:50:52;;;;;;;5.57;4.47;;;4.80;99.90;;;;;;5052646;28;20044;-75
2024/01/05 09:53:19;;;;;;;6.53;4.20;;;4.80;99.90;;;;;;5039051;28;20044;-75
2024/01/05 09:55:49;;;;;;;6.53;3.35;;;4.80;99.90;;;;;;5041410;28;20907;-76
2024/01/05 09:58:15;;;;;;;3.63;3.13;;;4.80;99.90;;;;;;5067660;28;20032;-74
2024/01/05 10:00:47;;;;;;;8.77;5.40;;;4.80;99.90;;;;;;5064386;28;20072;-75
2024/01/05 10:03:22;;;;;;;4.88;2.58;;;4.80;99.90;;;;;;5063050;28;20115;-76
2024/01/05 10:05:50;;;;;;;8.32;4.60;;;4.90;99.90;;;;;;5051416;28;20041;-76
2024/01/05 10:08:16;;;;;;;13.70;7.07;;;4.80;99.90;;;;;;5057162;28;20052;-76
2024/01/05 10:10:49;;;;;;;4.20;3.90;;;4.90;99.90;;;;;;5052394;28;20088;-76
2024/01/05 10:13:16;;;;;;;7.72;4.78;;;4.90;99.90;;;;;;5048674;28;20033;-75
2024/01/05 10:15:52;;;;;;;5.03;4.55;;;5.00;99.90;;;;;;5062537;28;20059;-76
2024/01/05 10:18:19;;;;;;;12.45;8.32;;;5.00;99.90;;;;;;5050186;28;20563;-75
2024/01/05 10:20:45;;;;;;;10.07;6.97;;;5.00;99.90;;;;;;5064981;28;20033;-76
2024/01/05 10:23:10;;;;;;;13.23;4.60;;;5.00;99.90;;;;;;5050848;28;20047;-76
2024/01/05 10:25:36;;;;;;;5.82;5.30;;;5.00;99.90;;;;;;5051256;28;20036;-76
2024/01/05 10:28:23;;;;;;;6.55;5.15;;;5.00;99.90;;;;;;5060008;28;20044;-75
2024/01/05 10:30:49;;;;;;;5.50;3.58;;;5.10;99.90;;;;;;5044168;28;20048;-77
2024/01/05 10:33:18;;;;;;;6.13;3.30;;;5.10;99.90;;;;;;5047840;28;20521;-75
2024/01/05 10:35:44;;;;;;;4.28;2.85;;;5.20;99.90;;;;;;5044836;28;20041;-75
2024/01/05 10:38:11;;;;;;;14.52;2.47;;;5.20;99.90;;;;;;5051969;28;20737;-75
2024/01/05 10:40:38;;;;;;;1.17;1.15;;;5.20;99.90;;;;;;5065663;28;20101;-74
2024/01/05 10:43:12;;;;;;;1.95;1.85;;;5.30;99.90;;;;;;5068447;28;20059;-74
2024/01/05 10:45:39;;;;;;;1.42;1.35;;;5.30;99.90;;;;;;5062264;28;20052;-74
2024/01/05 10:48:08;;;;;;;1.15;1.15;;;5.30;99.90;;;;;;5068371;28;20058;-75
2024/01/05 10:50:36;;;;;;;1.95;1.85;;;5.30;99.90;;;;;;5051083;28;20047;-75
2024/01/05 10:53:03;;;;;;;2.80;2.60;;;5.40;99.90;;;;;;5046382;28;20406;-75
2024/01/05 10:55:32;;;;;;;2.67;2.47;;;5.40;99.90;;;;;;5067481;28;20044;-75
2024/01/05 10:57:58;;;;;;;3.67;3.03;;;5.40;99.90;;;;;;5050362;28;20037;-76
2024/01/05 11:00:24;;;;;;;2.08;1.40;;;5.40;99.90;;;;;;5060121;28;20116;-76
2024/01/05 11:03:12;;;;;;;2.47;2.38;;;5.50;99.90;;;;;;5069975;28;20044;-76
2024/01/05 11:05:41;;;;;;;2.97;2.75;;;5.40;99.90;;;;;;5050544;28;20506;-76
2024/01/05 11:08:31;;;;;;;0.93;0.93;;;5.50;99.90;;;;;;5043914;28;20040;-76
2024/01/05 11:11:26;;;;;;;1.77;1.67;;;5.50;99.90;;;;;;5031943;28;20044;-76
2024/01/05 11:14:20;;;;;;;1.17;1.17;;;5.60;99.90;;;;;;5043434;28;20047;-76
2024/01/05 11:17:15;;;;;;;0.95;0.90;;;5.60;99.90;;;;;;5050291;28;20040;-76
2024/01/05 11:19:56;;;;;;;1.13;1.13;;;5.70;99.90;;;;;;5063281;28;20678;-76
2024/01/05 11:22:29;;;;;;;0.90;0.90;;;5.70;99.90;;;;;;5062230;28;20501;-76
2024/01/05 11:24:57;;;;;;;2.20;1.35;;;5.70;99.90;;;;;;5050027;28;20666;-78
2024/01/05 11:27:34;;;;;;;2.35;2.15;;;5.80;99.90;;;;;;5051220;28;20046;-77
2024/01/05 11:30:00;;;;;;;1.95;1.20;;;5.70;99.90;;;;;;5063188;28;20052;-76
2024/01/05 11:32:37;;;;;;;1.60;1.50;;;5.70;99.90;;;;;;5063301;28;20044;-75
2024/01/05 11:35:23;;;;;;;2.55;2.25;;;5.70;99.90;;;;;;5049356;28;20040;-74
2024/01/05 11:37:50;;;;;;;2.05;1.85;;;5.80;99.90;;;;;;5049346;28;20044;-74
2024/01/05 11:40:25;;;;;;;1.83;1.27;;;5.70;99.90;;;;;;5039705;28;20033;-75
2024/01/05 11:42:52;;;;;;;1.42;1.33;;;5.70;99.90;;;;;;5066919;28;20072;-75
2024/01/05 11:45:43;;;;;;;1.08;1.08;;;5.70;99.90;;;;;;5060989;28;20125;-76
2024/01/05 11:48:09;;;;;;;2.42;2.28;;;5.70;99.90;;;;;;5039493;28;20040;-76
2024/01/05 11:50:36;;;;;;;1.90;1.63;;;5.80;99.90;;;;;;5041946;28;20064;-75
2024/01/05 11:53:28;;;;;;;2.40;1.63;;;5.70;99.90;;;;;;5046147;28;20525;-75
2024/01/05 11:56:03;;;;;;;5.18;2.33;;;5.80;99.90;;;;;;5065864;28;20040;-77
2024/01/05 11:58:33;;;;;;;1.25;1.02;;;5.80;99.90;;;;;;5067241;28;20575;-77
2024/01/05 12:00:59;;;;;;;1.25;1.15;;;5.80;99.90;;;;;;5050513;28;20036;-77
2024/01/05 12:03:26;;;;;;;1.27;1.27;;;5.80;99.90;;;;;;5050631;28;20398;-77
2024/01/05 12:05:56;;;;;;;1.48;0.93;;;5.80;99.90;;;;;;5066047;28;20097;-76
2024/01/05 12:08:22;;;;;;;1.80;1.30;;;5.90;99.90;;;;;;5050140;28;20044;-76
2024/01/05 12:10:56;;;;;;;0.82;0.82;;;5.90;99.90;;;;;;5035385;28;20185;-76
2024/01/05 12:13:29;;;;;;;2.92;1.92;;;5.90;99.90;;;;;;5061582;28;20063;-75
2024/01/05 12:15:55;;;;;;;2.70;2.50;;;6.00;99.90;;;;;;5049715;28;20032;-75
2024/01/05 12:18:30;;;;;;;3.05;2.08;;;5.90;99.90;;;;;;5051416;28;20115;-76
2024/01/05 12:21:00;;;;;;;2.10;1.92;;;6.00;99.90;;;;;;5063391;28;20036;-77
2024/01/05 12:23:26;;;;;;;2.03;1.88;;;6.00;99.90;;;;;;5065372;28;20083;-77
2024/01/05 12:26:05;;;;;;;2.65;2.22;;;6.00;99.90;;;;;;5066465;28;20032;-77
2024/01/05 12:28:33;;;;;;;3.13;2.65;;;6.00;99.90;;;;;;5049151;28;20775;-77
2024/01/05 12:30:59;;;;;;;2.35;2.25;;;6.00;99.90;;;;;;5049619;28;20049;-77
2024/01/05 12:33:27;;;;;;;1.40;1.40;;;6.00;99.90;;;;;;5049187;28;20039;-77
2024/01/05 12:35:53;;;;;;;1.48;1.40;;;6.00;99.90;;;;;;5049717;28;20040;-75
2024/01/05 12:38:23;;;;;;;2.53;2.33;;;6.00;99.90;;;;;;5068039;28;20068;-74
2024/01/05 12:40:49;;;;;;;0.88;0.88;;;6.00;99.90;;;;;;5066215;28;20097;-75
2024/01/05 12:43:16;;;;;;;1.55;1.45;;;6.00;99.90;;;;;;5049043;28;20036;-75
2024/01/05 12:45:45;;;;;;;1.27;1.15;;;6.00;99.90;;;;;;5058814;28;20048;-75
2024/01/05 12:48:12;;;;;;;0.98;0.98;;;6.00;99.90;;;;;;5049166;28;20036;-75
2024/01/05 12:50:37;;;;;;;2.10;1.90;;;6.00;99.90;;;;;;5065257;28;20057;-75
2024/01/05 12:53:24;;;;;;;1.05;1.05;;;6.00;99.90;;;;;;5064848;28;20406;-75
2024/01/05 12:55:50;;;;;;;2.05;1.90;;;6.00;99.90;;;;;;5048427;28;20467;-75